Florence, Vermont
Current Conditions -  °F | °C
As of 12:15 PM on Sunday 23 Nov 2014 (Local Time) from KRUT Reporting Station
Overcast Overcast  
Wind Chill: 11°   Ceiling: 6000
Heat Index: 11°   Visibility: 10mi
Dew Point:   Wind: 6mph
Humidity: 67%   Direction: 220°SW
Pressure: 30.06"   Gusts: NA
Location:  43.72°N, 73.06°W
Report Text: KRUT 231715Z 22005KT 10SM FEW023 OVC060 11/05 A3006 RMK AO1
Loading
Personal Weather Stations






























Interactive Weather Map New forecast layout! Learn more

10-Day Weather Forecast

Advertisements
Track Severe Weather on mobile